createdAt,value
2022-11-25T00:04:12.610Z,82.47
2022-11-25T00:09:09.843Z,82.96
2022-11-25T00:14:04.077Z,82.73
2022-11-25T00:19:00.563Z,82.97
2022-11-25T00:23:55.486Z,82.84
2022-11-25T00:28:51.422Z,83.20
2022-11-25T00:33:45.252Z,83.30
2022-11-25T00:38:38.501Z,83.65
2022-11-25T00:43:48.919Z,84.06
2022-11-25T00:48:43.617Z,84.20
2022-11-25T00:53:37.001Z,84.56
2022-11-25T00:58:30.482Z,84.61
2022-11-25T01:03:23.964Z,85.17
2022-11-25T01:08:21.904Z,85.58
2022-11-25T01:13:15.524Z,85.79
2022-11-25T01:18:11.137Z,86.35
2022-11-25T01:23:04.534Z,86.25
2022-11-25T01:27:59.379Z,86.48
2022-11-25T01:32:53.541Z,86.65
2022-11-25T01:37:46.987Z,86.92
2022-11-25T01:42:44.417Z,86.95
2022-11-25T01:47:39.291Z,87.15
2022-11-25T01:52:37.517Z,87.30
2022-11-25T01:57:36.800Z,87.14
2022-11-25T02:02:31.844Z,87.05
2022-11-25T02:07:36.649Z,87.26
2022-11-25T02:12:31.485Z,87.06
2022-11-25T02:17:28.062Z,86.92
2022-11-25T02:22:27.941Z,87.19
2022-11-25T02:27:30.118Z,87.67
2022-11-25T02:32:25.475Z,87.10
2022-11-25T02:37:22.945Z,87.40
2022-11-25T02:42:18.408Z,87.53
2022-11-25T02:47:14.131Z,87.80
2022-11-25T02:52:07.777Z,88.39
2022-11-25T02:57:01.176Z,88.33
2022-11-25T03:01:54.869Z,87.99
2022-11-25T03:06:53.679Z,88.41
2022-11-25T03:12:04.728Z,88.57
2022-11-25T03:16:57.997Z,88.50
2022-11-25T03:21:57.153Z,89.05
2022-11-25T03:26:50.481Z,89.07
2022-11-25T03:31:44.688Z,89.01
2022-11-25T03:36:39.938Z,88.98
2022-11-25T03:41:36.896Z,88.85
2022-11-25T03:46:30.760Z,89.13
2022-11-25T03:51:28.787Z,89.48
2022-11-25T03:56:31.606Z,89.69
2022-11-25T04:01:26.678Z,89.53
2022-11-25T04:06:22.624Z,89.68
2022-11-25T04:11:17.966Z,90.01
2022-11-25T04:16:27.134Z,90.02
2022-11-25T04:21:23.007Z,89.99
2022-11-25T04:26:19.763Z,90.13
2022-11-25T04:31:14.318Z,90.23
2022-11-25T04:36:12.617Z,90.53
2022-11-25T04:41:12.907Z,90.39
2022-11-25T04:46:28.111Z,90.96
2022-11-25T04:51:24.584Z,91.04
2022-11-25T04:56:25.396Z,91.10
2022-11-25T05:01:21.090Z,91.34
2022-11-25T05:06:20.584Z,91.49
2022-11-25T05:11:14.293Z,91.66
2022-11-25T05:16:14.585Z,91.66
2022-11-25T05:21:16.154Z,91.30
2022-11-25T05:26:11.290Z,91.15
2022-11-25T05:31:10.682Z,91.52
2022-11-25T05:36:09.057Z,91.21
2022-11-25T05:41:41.943Z,91.11
2022-11-25T05:46:41.921Z,91.31
2022-11-25T05:51:46.006Z,91.92
2022-11-25T05:56:43.144Z,91.28
2022-11-25T06:01:56.206Z,91.10
2022-11-25T06:06:49.673Z,91.00
2022-11-25T06:11:44.241Z,90.82
2022-11-25T06:16:37.808Z,91.40
2022-11-25T06:21:46.047Z,90.68
2022-11-25T06:26:40.380Z,90.38
2022-11-25T06:31:35.946Z,90.31
2022-11-25T06:36:41.406Z,89.90
2022-11-25T06:41:36.379Z,89.99
2022-11-25T06:46:29.821Z,89.98
2022-11-25T06:51:24.804Z,89.88
2022-11-25T06:56:20.805Z,89.56
2022-11-25T07:01:17.951Z,89.24
2022-11-25T07:06:12.974Z,89.40
2022-11-25T07:11:08.680Z,89.28
2022-11-25T07:16:05.571Z,88.65
2022-11-25T07:21:10.827Z,88.50
2022-11-25T07:26:06.410Z,87.99
2022-11-25T07:31:29.027Z,87.85
2022-11-25T07:36:24.848Z,87.80
2022-11-25T07:41:20.473Z,86.63
2022-11-25T07:46:16.733Z,85.16
2022-11-25T07:51:16.907Z,86.07
2022-11-25T07:56:11.889Z,85.88
2022-11-25T08:01:07.278Z,86.48
2022-11-25T08:06:02.358Z,86.48
2022-11-25T08:10:55.664Z,87.35
2022-11-25T08:15:56.553Z,87.39
2022-11-25T08:20:50.091Z,87.25
2022-11-25T08:25:50.447Z,87.65
2022-11-25T08:31:05.955Z,88.12
2022-11-25T08:35:59.696Z,87.41
2022-11-25T08:40:56.615Z,88.38
2022-11-25T08:45:53.370Z,86.26
2022-11-25T08:51:05.944Z,84.94
2022-11-25T08:55:59.670Z,84.15
2022-11-25T09:00:59.890Z,82.61
2022-11-25T09:05:58.717Z,81.57
2022-11-25T09:10:52.911Z,80.39
2022-11-25T09:15:50.832Z,78.40
2022-11-25T09:20:44.641Z,79.04
2022-11-25T09:25:39.799Z,78.72
2022-11-25T09:30:33.381Z,79.83
2022-11-25T09:35:28.652Z,80.17
2022-11-25T09:40:30.069Z,78.32
2022-11-25T09:45:50.051Z,78.68
2022-11-25T09:50:55.748Z,79.48
2022-11-25T09:55:55.932Z,78.98
2022-11-25T10:00:56.122Z,78.82
2022-11-25T10:05:59.075Z,79.07
2022-11-25T10:10:59.946Z,79.22
2022-11-25T10:16:00.867Z,78.14
2022-11-25T10:20:55.440Z,78.52
2022-11-25T10:25:57.296Z,81.70
2022-11-25T10:30:59.771Z,80.36
2022-11-25T10:35:58.175Z,75.95
2022-11-25T10:40:53.884Z,74.60
2022-11-25T10:45:55.378Z,72.80
2022-11-25T10:51:04.593Z,72.23
2022-11-25T10:56:01.256Z,73.93
2022-11-25T11:01:08.446Z,73.62
2022-11-25T11:06:03.160Z,73.06
2022-11-25T11:11:16.278Z,73.71
2022-11-25T11:16:26.475Z,74.94
2022-11-25T11:21:30.419Z,73.28
2022-11-25T11:26:26.949Z,73.37
2022-11-25T11:31:25.580Z,73.71
2022-11-25T11:36:33.072Z,74.14
2022-11-25T11:41:38.071Z,75.74
2022-11-25T11:46:42.340Z,74.10
2022-11-25T11:51:46.434Z,74.70
2022-11-25T11:56:43.948Z,74.90
2022-11-25T12:01:49.798Z,73.40
2022-11-25T12:06:49.888Z,74.70
2022-11-25T12:11:47.333Z,73.77
2022-11-25T12:16:47.983Z,73.53
2022-11-25T12:21:52.461Z,74.06
2022-11-25T12:26:52.732Z,74.06
2022-11-25T12:31:53.798Z,74.19
2022-11-25T12:37:30.953Z,74.72
2022-11-25T12:42:26.988Z,74.89
2022-11-25T12:47:21.790Z,75.45
2022-11-25T12:52:38.506Z,75.37
2022-11-25T12:58:23.736Z,76.14
2022-11-25T13:03:43.798Z,76.47
2022-11-25T13:09:01.521Z,77.42
2022-11-25T13:14:03.765Z,78.70
2022-11-25T13:18:57.845Z,77.64
2022-11-25T13:23:56.527Z,77.40
2022-11-25T13:28:51.668Z,77.66
2022-11-25T13:34:03.768Z,77.94
2022-11-25T13:39:08.000Z,78.57
2022-11-25T13:44:10.280Z,77.95
2022-11-25T13:49:03.770Z,78.28
2022-11-25T13:54:02.648Z,78.48
2022-11-25T13:59:35.929Z,79.23
2022-11-25T14:04:45.449Z,79.59
2022-11-25T14:09:57.627Z,79.57
2022-11-25T14:15:12.278Z,80.10
2022-11-25T14:20:23.358Z,80.13
2022-11-25T14:25:23.626Z,80.60
2022-11-25T14:30:19.940Z,80.74
2022-11-25T14:35:18.149Z,80.93
2022-11-25T14:40:20.771Z,80.99
2022-11-25T14:45:29.302Z,81.26
2022-11-25T14:50:39.151Z,81.53
2022-11-25T14:55:33.087Z,82.05
2022-11-25T15:00:31.392Z,83.01
2022-11-25T15:05:27.451Z,83.55
2022-11-25T15:10:31.899Z,84.98
2022-11-25T15:15:31.834Z,84.32
2022-11-25T15:20:30.534Z,83.00
2022-11-25T15:25:24.330Z,81.96
2022-11-25T15:30:27.899Z,81.46
2022-11-25T15:35:28.852Z,81.12
2022-11-25T15:40:40.854Z,81.14
2022-11-25T15:45:44.091Z,81.33
2022-11-25T15:50:42.850Z,81.36
2022-11-25T15:55:39.166Z,81.53
2022-11-25T16:00:32.778Z,81.40
2022-11-25T16:05:41.816Z,81.44
2022-11-25T16:10:52.788Z,81.05
2022-11-25T16:15:47.259Z,80.44
2022-11-25T16:20:48.726Z,80.35
2022-11-25T16:25:42.664Z,80.08
2022-11-25T16:30:38.892Z,79.77
2022-11-25T16:35:32.373Z,79.31
2022-11-25T16:40:28.050Z,79.04
2022-11-25T16:45:23.447Z,79.03
2022-11-25T16:50:18.151Z,79.68
2022-11-25T16:55:11.627Z,79.56
2022-11-25T17:00:13.783Z,79.76
2022-11-25T17:05:22.452Z,79.28
2022-11-25T17:10:32.352Z,79.50
2022-11-25T17:15:39.949Z,79.29
2022-11-25T17:20:51.243Z,79.06
2022-11-25T17:25:50.848Z,78.90
2022-11-25T17:31:03.167Z,78.58
2022-11-25T17:36:07.914Z,78.97
2022-11-25T17:41:03.889Z,78.65
2022-11-25T17:46:19.414Z,78.50
2022-11-25T17:53:35.830Z,78.30
2022-11-25T18:12:35.812Z,76.71
2022-11-25T18:25:57.115Z,76.98
2022-11-25T18:32:22.328Z,76.50
2022-11-25T18:44:52.572Z,76.68
2022-11-25T18:58:00.743Z,76.73
2022-11-25T19:03:37.287Z,77.44
2022-11-25T19:09:18.386Z,77.15
2022-11-25T19:15:16.881Z,77.21
2022-11-25T19:27:37.089Z,76.55
2022-11-25T19:32:49.592Z,76.30
2022-11-25T19:44:08.566Z,76.46
2022-11-25T19:49:07.430Z,76.89
2022-11-25T19:55:04.442Z,76.74
2022-11-25T20:18:49.567Z,78.05
2022-11-25T20:46:44.965Z,78.71
2022-11-25T20:59:52.749Z,79.92
2022-11-25T21:12:20.765Z,80.08
2022-11-25T21:51:41.018Z,81.87
2022-11-25T21:56:59.506Z,82.22
2022-11-25T22:09:03.943Z,82.71
2022-11-25T22:14:47.071Z,82.31
2022-11-25T22:32:12.583Z,82.63
2022-11-25T22:37:31.071Z,82.65
2022-11-25T22:43:32.037Z,82.38
2022-11-25T22:48:56.993Z,82.53
2022-11-25T22:53:52.414Z,82.58
2022-11-25T22:58:48.844Z,82.38
2022-11-25T23:09:38.606Z,83.11
2022-11-25T23:14:33.549Z,83.29
2022-11-25T23:19:52.398Z,84.00
2022-11-25T23:24:57.790Z,83.62
2022-11-25T23:30:09.238Z,83.21
2022-11-25T23:35:16.289Z,83.15
2022-11-25T23:40:25.407Z,83.24
2022-11-25T23:45:41.697Z,83.83
2022-11-25T23:50:41.550Z,83.51
2022-11-25T23:55:59.810Z,83.96
